Flugplatz Bad Windsheim (EDQB)

Hier findest Du alle Informationen zum Flugplatz Bad Windsheim (EDQB).

Informationen für Piloten zum Flugplatz Bad Windsheim

Hier findest Du alle relevanten Informationen, die Du als Pilot benötigst, um Bad Windsheim anzufliegen.

Flugplatz: Bad Windsheim ICAO-Code: EDQB
Frequenz Turm: 118,275 Mhz GAFOR Gebiet: 55
Frequenz Ground: 118,275 Mhz Mogas: nein
Platzrunde: N 2000 ft Landegebühr: -
Platzhöhe: - Sunrise: 05:46 Uhr UTC
Pisten: 08/26 - 690 m x 30 m, GRAS Sunset: 17:12 Uhr UTC

Flugwetter am Flugplatz Bad Windsheim

Die METAR Information stammen aus EDDN (51.45 km entfernt).

METAR Code:
2021/03/02 17:50
EDDN 021750Z 09004KT CAVOK 10/M03 Q1031 NOSIG

Temperatur: -3,8 °C Niederschlag: - Wind: 1,8 kt
Temperatur (min.): -6,0 °C Luftdruck: 1028 hPa Windrichtung: 83 °
Temperatur (max.): -1,1 °C Luftfeuchtigkeit: 86 % Bewölkung: 1/8

Flugschulen am Flugplatz Bad Windsheim

Am Flugplatz Bad Windsheim gibt es leider keine Flugschule.

Benachbarte Flugplätze und Flugschulen

Es gibt 17 weitere Flugplätze in einem Umkreis von 50 km um den Flugplatz Bad Windsheim.

Jetzt anmelden

Passwort vergessen

Umfrage Archiv

Seid Ihr aufgrund von Corona im Jahr 2020 mehr oder weniger geflogen als im Jahr zuvor?

weniger
54.5 %
gleich viel
28.1 %
mehr
17.4 %
Stimmen: 121 | Diskussion
Anzeige: Roland Aircraft
Statistik Alle Mitglieder

Aktuell sind 41 Besucher online.

Anzeige: VFR Sprechfunk Simulator


Anzeige: Pocket FMS